createdAt,value
2018-05-23T00:00:24.357Z,90.00
2018-05-23T00:02:53.730Z,90.10
2018-05-23T00:05:26.367Z,90.00
2018-05-23T00:07:53.990Z,90.00
2018-05-23T00:12:55.784Z,90.00
2018-05-23T00:15:28.684Z,90.20
2018-05-23T00:17:56.401Z,90.10
2018-05-23T00:20:24.099Z,90.20
2018-05-23T00:22:51.730Z,90.30
2018-05-23T00:25:24.823Z,90.50
2018-05-23T00:27:52.453Z,90.50
2018-05-23T00:30:20.890Z,90.80
2018-05-23T00:32:48.797Z,90.70
2018-05-23T00:35:25.541Z,90.80
2018-05-23T00:40:45.537Z,90.30
2018-05-23T00:43:13.220Z,90.30
2018-05-23T00:45:43.426Z,90.30
2018-05-23T00:48:12.605Z,90.30
2018-05-23T00:50:40.263Z,90.30
2018-05-23T00:53:07.924Z,90.30
2018-05-23T00:55:36.327Z,90.40
2018-05-23T00:58:03.984Z,90.30
2018-05-23T01:00:31.793Z,90.10
2018-05-23T01:02:59.384Z,90.00
2018-05-23T01:05:27.277Z,90.00
2018-05-23T01:07:56.167Z,89.50
2018-05-23T01:10:23.760Z,89.50
2018-05-23T01:12:51.393Z,89.60
2018-05-23T01:15:19.154Z,89.60
2018-05-23T01:17:46.764Z,89.90
2018-05-23T01:20:14.434Z,90.00
2018-05-23T01:22:45.262Z,90.00
2018-05-23T01:25:12.994Z,90.10
2018-05-23T01:27:41.466Z,90.10
2018-05-23T01:30:09.036Z,90.00
2018-05-23T01:32:37.393Z,90.00
2018-05-23T01:35:04.961Z,89.90
2018-05-23T01:37:32.560Z,90.20
2018-05-23T01:40:00.140Z,90.20
2018-05-23T01:42:27.741Z,90.20
2018-05-23T01:44:56.128Z,90.40
2018-05-23T01:47:23.724Z,90.40
2018-05-23T01:49:51.330Z,90.50
2018-05-23T01:52:19.821Z,90.60
2018-05-23T01:54:51.248Z,90.70
2018-05-23T01:57:20.137Z,90.60
2018-05-23T01:59:47.798Z,90.40
2018-05-23T02:02:15.450Z,90.20
2018-05-23T02:04:43.101Z,90.20
2018-05-23T02:07:10.716Z,90.20
2018-05-23T02:09:38.414Z,90.30
2018-05-23T02:12:06.024Z,90.30
2018-05-23T02:14:33.663Z,90.20
2018-05-23T02:17:01.354Z,90.30
2018-05-23T02:19:29.798Z,90.20
2018-05-23T02:21:57.415Z,90.20
2018-05-23T02:24:25.198Z,90.10
2018-05-23T02:26:57.085Z,90.20
2018-05-23T02:29:24.680Z,90.30
2018-05-23T02:31:52.248Z,90.40
2018-05-23T02:34:20.605Z,90.60
2018-05-23T02:36:48.192Z,90.60
2018-05-23T02:39:17.301Z,90.50
2018-05-23T02:41:45.046Z,90.70
2018-05-23T02:44:12.588Z,90.70
2018-05-23T02:46:40.951Z,90.50
2018-05-23T02:49:08.575Z,90.50
2018-05-23T02:51:36.146Z,90.30
2018-05-23T02:54:03.761Z,90.30
2018-05-23T02:56:31.360Z,90.50
2018-05-23T02:58:59.054Z,90.20
2018-05-23T03:01:26.647Z,90.20
2018-05-23T03:03:54.226Z,90.20
2018-05-23T03:06:21.826Z,90.10
2018-05-23T03:08:49.407Z,90.00
2018-05-23T03:11:19.908Z,90.00
2018-05-23T03:13:47.491Z,89.90
2018-05-23T03:16:15.081Z,90.10
2018-05-23T03:18:42.804Z,90.00
2018-05-23T03:21:10.410Z,90.00
2018-05-23T03:23:37.997Z,90.00
2018-05-23T03:26:05.647Z,90.10
2018-05-23T03:28:33.234Z,89.90
2018-05-23T03:31:00.836Z,89.80
2018-05-23T03:33:29.736Z,89.50
2018-05-23T03:35:57.519Z,89.80
2018-05-23T03:38:25.206Z,90.00
2018-05-23T03:40:55.729Z,90.20
2018-05-23T03:43:25.029Z,90.20
2018-05-23T03:45:54.423Z,90.30
2018-05-23T03:48:22.403Z,90.30
2018-05-23T03:50:52.175Z,90.30
2018-05-23T03:53:19.785Z,90.40
2018-05-23T03:55:47.385Z,90.30
2018-05-23T03:58:15.230Z,90.30
2018-05-23T04:00:54.765Z,90.30
2018-05-23T04:03:34.012Z,90.20
2018-05-23T04:06:13.410Z,90.10
2018-05-23T04:08:41.012Z,90.20
2018-05-23T04:11:08.625Z,90.00
2018-05-23T04:13:36.296Z,90.10
2018-05-23T04:16:04.813Z,90.10
2018-05-23T04:18:32.612Z,90.20
2018-05-23T04:21:00.473Z,90.10
2018-05-23T04:23:28.144Z,90.10
2018-05-23T04:25:56.028Z,90.10
2018-05-23T04:28:23.627Z,90.10
2018-05-23T04:30:51.344Z,90.00
2018-05-23T04:33:19.556Z,90.00
2018-05-23T04:35:47.255Z,90.20
2018-05-23T04:38:14.984Z,89.80
2018-05-23T04:40:43.496Z,90.00
2018-05-23T04:43:11.239Z,89.70
2018-05-23T04:45:39.732Z,89.50
2018-05-23T04:48:07.794Z,89.40
2018-05-23T04:50:36.194Z,89.40
2018-05-23T04:53:03.974Z,89.20
2018-05-23T04:55:31.687Z,88.70
2018-05-23T04:57:59.314Z,88.80
2018-05-23T05:00:27.226Z,88.90
2018-05-23T05:02:54.875Z,89.20
2018-05-23T05:05:22.677Z,88.00
2018-05-23T05:07:50.325Z,87.10
2018-05-23T05:10:17.971Z,87.00
2018-05-23T05:12:45.724Z,86.80
2018-05-23T05:15:13.561Z,86.70
2018-05-23T05:17:41.251Z,86.60
2018-05-23T05:20:08.897Z,86.90
2018-05-23T05:22:36.678Z,86.90
2018-05-23T05:25:04.704Z,87.10
2018-05-23T05:27:32.490Z,86.60
2018-05-23T05:30:00.116Z,86.60
2018-05-23T05:32:28.126Z,86.50
2018-05-23T05:34:55.798Z,85.90
2018-05-23T05:37:23.497Z,86.10
2018-05-23T05:39:51.134Z,86.20
2018-05-23T05:42:18.744Z,86.30
2018-05-23T05:44:46.410Z,85.90
2018-05-23T05:47:14.266Z,86.10
2018-05-23T05:49:41.976Z,86.80
2018-05-23T05:52:09.676Z,85.80
2018-05-23T05:54:37.572Z,85.80
2018-05-23T05:57:05.201Z,85.60
2018-05-23T05:59:32.888Z,85.10
2018-05-23T06:02:00.749Z,85.20
2018-05-23T06:04:28.354Z,85.40
2018-05-23T06:06:56.102Z,84.70
2018-05-23T06:09:23.915Z,84.60
2018-05-23T06:11:51.612Z,84.10
2018-05-23T06:14:19.357Z,83.90
2018-05-23T06:16:47.034Z,84.40
2018-05-23T06:19:14.691Z,83.80
2018-05-23T06:21:42.368Z,83.40
2018-05-23T06:24:10.106Z,83.50
2018-05-23T06:26:37.729Z,82.70
2018-05-23T06:29:06.685Z,82.90
2018-05-23T06:31:35.509Z,82.80
2018-05-23T06:34:03.209Z,82.80
2018-05-23T06:36:31.063Z,83.10
2018-05-23T06:38:59.513Z,82.70
2018-05-23T06:41:27.212Z,82.70
2018-05-23T06:43:59.318Z,81.80
2018-05-23T06:46:27.508Z,81.50
2018-05-23T06:48:55.526Z,81.40
2018-05-23T06:51:27.436Z,81.40
2018-05-23T06:53:59.627Z,81.70
2018-05-23T06:56:28.517Z,81.70
2018-05-23T06:58:57.441Z,81.20
2018-05-23T07:01:25.701Z,80.70
2018-05-23T07:03:54.469Z,79.80
2018-05-23T07:06:22.399Z,79.70
2018-05-23T07:08:50.207Z,79.80
2018-05-23T07:11:18.004Z,79.60
2018-05-23T07:13:46.027Z,79.90
2018-05-23T07:16:14.414Z,80.20
2018-05-23T07:18:42.285Z,80.10
2018-05-23T07:21:15.526Z,80.00
2018-05-23T07:23:52.952Z,78.80
2018-05-23T07:26:26.246Z,78.80
2018-05-23T07:29:02.533Z,78.40
2018-05-23T07:31:40.986Z,78.10
2018-05-23T07:34:18.543Z,78.00
2018-05-23T07:36:49.687Z,77.40
2018-05-23T07:39:25.782Z,77.60
2018-05-23T07:41:54.431Z,76.80
2018-05-23T07:44:22.049Z,76.60
2018-05-23T07:46:49.728Z,76.40
2018-05-23T07:49:17.333Z,76.10
2018-05-23T07:51:48.576Z,76.00
2018-05-23T07:54:16.417Z,75.70
2018-05-23T07:56:44.174Z,75.20
2018-05-23T07:59:11.786Z,74.90
2018-05-23T08:01:39.645Z,74.50
2018-05-23T08:04:08.101Z,76.00
2018-05-23T08:06:35.818Z,75.90
2018-05-23T08:09:03.476Z,75.60
2018-05-23T08:11:31.125Z,74.20
2018-05-23T08:13:58.735Z,72.30
2018-05-23T08:16:28.085Z,70.10
2018-05-23T08:18:56.632Z,70.00
2018-05-23T08:21:24.546Z,69.90
2018-05-23T08:23:52.177Z,70.90
2018-05-23T08:26:20.263Z,70.00
2018-05-23T08:28:47.973Z,68.80
2018-05-23T08:31:15.585Z,64.40
2018-05-23T08:33:43.360Z,66.10
2018-05-23T08:36:11.033Z,65.20
2018-05-23T08:38:38.685Z,65.70
2018-05-23T08:41:07.379Z,66.40
2018-05-23T08:46:13.589Z,66.40
2018-05-23T08:48:53.684Z,66.00
2018-05-23T08:51:21.325Z,64.30
2018-05-23T08:53:51.501Z,63.50
2018-05-23T08:56:19.298Z,63.40
2018-05-23T08:58:47.010Z,63.50
2018-05-23T09:01:14.668Z,61.10
2018-05-23T09:03:42.285Z,60.30
2018-05-23T09:06:09.962Z,59.00
2018-05-23T09:08:37.626Z,59.20
2018-05-23T09:11:05.335Z,59.40
2018-05-23T09:13:33.013Z,59.70
2018-05-23T09:16:00.768Z,59.00
2018-05-23T09:18:28.460Z,59.50
2018-05-23T09:20:56.987Z,58.20
2018-05-23T09:23:24.953Z,58.10
2018-05-23T09:25:52.919Z,58.90
2018-05-23T09:28:20.653Z,59.00
2018-05-23T09:30:48.390Z,59.10
2018-05-23T09:33:16.280Z,58.90
2018-05-23T09:35:45.025Z,58.40
2018-05-23T09:38:12.778Z,58.30
2018-05-23T09:40:40.428Z,58.50
2018-05-23T09:43:08.047Z,59.00
2018-05-23T09:45:36.569Z,59.40
2018-05-23T09:48:04.264Z,59.10
2018-05-23T09:50:31.938Z,59.40
2018-05-23T09:52:59.804Z,59.50
2018-05-23T09:55:27.431Z,59.60
2018-05-23T09:57:55.072Z,60.20
2018-05-23T10:00:25.677Z,59.90
2018-05-23T10:02:54.146Z,59.90
2018-05-23T10:05:21.839Z,59.90
2018-05-23T10:07:49.469Z,59.00
2018-05-23T10:10:17.124Z,59.40
2018-05-23T10:12:45.043Z,58.30
2018-05-23T10:15:12.861Z,56.70
2018-05-23T10:17:40.500Z,56.90
2018-05-23T10:20:08.127Z,57.20
2018-05-23T10:22:35.808Z,57.00
2018-05-23T10:25:03.481Z,57.00
2018-05-23T10:27:31.118Z,57.20
2018-05-23T10:29:58.821Z,56.90
2018-05-23T10:32:26.501Z,56.60
2018-05-23T10:34:56.729Z,57.10
2018-05-23T10:37:25.115Z,56.80
2018-05-23T10:39:52.948Z,56.40
2018-05-23T10:42:21.144Z,55.80
2018-05-23T10:44:49.372Z,55.90
2018-05-23T10:47:17.979Z,56.30
2018-05-23T10:49:47.513Z,57.00
2018-05-23T10:52:15.559Z,57.80
2018-05-23T10:54:43.679Z,58.10
2018-05-23T10:57:16.556Z,58.80
2018-05-23T10:59:47.157Z,58.70
2018-05-23T11:02:17.177Z,59.30
2018-05-23T11:04:45.847Z,59.70
2018-05-23T11:07:13.740Z,59.70
2018-05-23T11:09:41.565Z,59.80
2018-05-23T11:12:09.686Z,60.60
2018-05-23T11:14:38.298Z,61.50
2018-05-23T11:17:06.117Z,62.10
2018-05-23T11:19:34.645Z,62.30
2018-05-23T11:22:02.478Z,64.50
2018-05-23T11:24:30.385Z,64.90
2018-05-23T11:26:58.914Z,63.30
2018-05-23T11:29:27.858Z,64.60
2018-05-23T11:31:56.299Z,63.90
2018-05-23T11:34:24.667Z,63.70
2018-05-23T11:36:53.175Z,63.00
2018-05-23T11:39:22.463Z,62.20
2018-05-23T11:41:50.290Z,61.30
2018-05-23T11:44:19.184Z,58.60
2018-05-23T11:46:47.139Z,58.50
2018-05-23T11:49:14.908Z,58.30
2018-05-23T11:51:45.439Z,58.00
2018-05-23T11:54:13.992Z,57.60
2018-05-23T11:56:42.086Z,57.50
2018-05-23T11:59:10.533Z,57.40
2018-05-23T12:01:39.817Z,57.30
2018-05-23T12:04:08.408Z,57.50
2018-05-23T12:06:37.330Z,57.40
2018-05-23T12:09:06.187Z,57.60
2018-05-23T12:11:34.672Z,57.70
2018-05-23T12:14:04.023Z,58.50
2018-05-23T12:16:31.963Z,57.50
2018-05-23T12:19:00.088Z,57.40
2018-05-23T12:21:27.916Z,57.60
2018-05-23T12:23:56.042Z,58.00
2018-05-23T12:26:24.346Z,58.30
2018-05-23T12:28:53.459Z,58.70
2018-05-23T12:31:21.540Z,58.90
2018-05-23T12:33:52.463Z,58.90
2018-05-23T12:36:24.530Z,59.10
2018-05-23T12:38:52.867Z,59.10
2018-05-23T12:41:22.521Z,59.50
2018-05-23T12:43:51.365Z,59.70
2018-05-23T12:46:20.211Z,60.10
2018-05-23T12:48:48.057Z,60.10
2018-05-23T12:51:15.948Z,60.20
2018-05-23T12:53:43.964Z,60.10
2018-05-23T12:56:11.953Z,60.00
2018-05-23T12:58:40.045Z,60.30
2018-05-23T13:01:07.982Z,59.50
2018-05-23T13:03:36.388Z,59.00
2018-05-23T13:06:04.159Z,58.20
2018-05-23T13:08:33.602Z,58.40
2018-05-23T13:11:02.304Z,58.40
2018-05-23T13:13:30.873Z,58.40
2018-05-23T13:15:59.530Z,57.90
2018-05-23T13:18:27.446Z,58.70
2018-05-23T13:20:56.277Z,58.80
2018-05-23T13:23:25.877Z,58.80
2018-05-23T13:25:54.721Z,57.10
2018-05-23T13:28:23.478Z,57.10
2018-05-23T13:30:51.837Z,56.30
2018-05-23T13:33:19.880Z,56.70
2018-05-23T13:35:48.513Z,56.90
2018-05-23T13:38:17.239Z,58.00
2018-05-23T13:40:48.556Z,57.90
2018-05-23T13:43:17.205Z,54.40
2018-05-23T13:45:45.762Z,53.10
2018-05-23T13:48:13.533Z,53.10
2018-05-23T13:50:41.940Z,53.50
2018-05-23T13:53:09.621Z,54.30
2018-05-23T13:55:40.228Z,53.40
2018-05-23T13:58:08.531Z,53.90
2018-05-23T14:00:36.443Z,54.40
2018-05-23T14:03:07.128Z,54.20
2018-05-23T14:05:35.218Z,54.20
2018-05-23T14:08:11.137Z,53.80
2018-05-23T14:10:39.556Z,53.70
2018-05-23T14:13:07.762Z,53.50
2018-05-23T14:15:36.958Z,53.20
2018-05-23T14:18:07.158Z,53.00
2018-05-23T14:20:35.438Z,53.00
2018-05-23T14:23:03.614Z,53.30
2018-05-23T14:25:31.399Z,54.20
2018-05-23T14:27:59.420Z,54.80
2018-05-23T14:30:27.935Z,54.60
2018-05-23T14:32:56.944Z,54.50
2018-05-23T14:35:26.237Z,55.20
2018-05-23T14:37:54.728Z,55.20
2018-05-23T14:40:24.094Z,54.30
2018-05-23T14:42:52.536Z,53.60
2018-05-23T14:45:21.517Z,53.30
2018-05-23T14:47:50.105Z,53.00
2018-05-23T14:50:18.826Z,52.00
2018-05-23T14:52:47.010Z,52.00
2018-05-23T14:55:15.299Z,51.20
2018-05-23T14:57:44.805Z,47.80
2018-05-23T15:00:12.784Z,47.80
2018-05-23T15:02:41.079Z,46.00
2018-05-23T15:05:10.091Z,45.90
2018-05-23T15:07:38.071Z,45.80
2018-05-23T15:10:06.859Z,47.30
2018-05-23T15:12:35.227Z,48.40
2018-05-23T15:15:03.186Z,49.60
2018-05-23T15:17:31.631Z,50.00
2018-05-23T15:20:00.103Z,48.90
2018-05-23T15:22:28.232Z,46.10
2018-05-23T15:24:56.084Z,44.00
2018-05-23T15:27:23.767Z,41.90
2018-05-23T15:29:51.630Z,40.00
2018-05-23T15:32:19.679Z,38.60
2018-05-23T15:34:47.523Z,38.50
2018-05-23T15:37:16.349Z,38.50
2018-05-23T15:39:44.353Z,38.40
2018-05-23T15:42:12.439Z,37.60
2018-05-23T15:44:40.244Z,38.00
2018-05-23T15:47:08.239Z,40.30
2018-05-23T15:49:36.120Z,42.50
2018-05-23T15:52:04.293Z,44.10
2018-05-23T15:54:32.618Z,44.70
2018-05-23T15:57:00.602Z,46.40
2018-05-23T15:59:29.480Z,47.90
2018-05-23T16:01:57.497Z,47.90
2018-05-23T16:04:25.903Z,46.00
2018-05-23T16:06:53.892Z,44.00
2018-05-23T16:09:23.407Z,41.90
2018-05-23T16:11:51.804Z,40.90
2018-05-23T16:14:20.761Z,40.10
2018-05-23T16:16:49.052Z,40.10
2018-05-23T16:19:16.989Z,41.70
2018-05-23T16:21:45.985Z,43.40
2018-05-23T16:24:18.118Z,46.10
2018-05-23T16:26:48.581Z,49.00
2018-05-23T16:29:16.849Z,49.00
2018-05-23T16:31:45.168Z,46.50
2018-05-23T16:34:13.380Z,44.70
2018-05-23T16:36:42.637Z,44.10
2018-05-23T16:39:11.477Z,43.90
2018-05-23T16:41:39.119Z,44.10
2018-05-23T16:44:08.621Z,45.10
2018-05-23T16:46:36.678Z,45.90
2018-05-23T16:49:04.980Z,49.80
2018-05-23T16:51:33.798Z,50.50
2018-05-23T16:54:02.085Z,47.80
2018-05-23T16:56:32.542Z,45.80
2018-05-23T16:59:02.787Z,44.10
2018-05-23T17:01:31.891Z,44.20
2018-05-23T17:04:00.360Z,45.70
2018-05-23T17:06:28.239Z,45.70
2018-05-23T17:08:58.756Z,44.30
2018-05-23T17:11:26.641Z,44.00
2018-05-23T17:13:54.504Z,44.40
2018-05-23T17:16:22.614Z,44.00
2018-05-23T17:18:50.860Z,43.80
2018-05-23T17:21:20.570Z,43.70
2018-05-23T17:23:48.376Z,43.70
2018-05-23T17:26:16.303Z,43.50
2018-05-23T17:28:44.116Z,43.90
2018-05-23T17:31:13.596Z,43.80
2018-05-23T17:33:41.907Z,43.60
2018-05-23T17:36:12.317Z,44.10
2018-05-23T17:38:41.082Z,44.20
2018-05-23T17:41:09.791Z,43.90
2018-05-23T17:43:39.216Z,43.90
2018-05-23T17:46:11.198Z,44.40
2018-05-23T17:48:38.981Z,44.80
2018-05-23T17:51:08.662Z,45.00
2018-05-23T17:53:36.296Z,45.00
2018-05-23T17:56:03.995Z,45.10
2018-05-23T17:58:34.041Z,44.40
2018-05-23T18:01:01.769Z,44.30
2018-05-23T18:03:29.480Z,44.10
2018-05-23T18:05:59.927Z,45.50
2018-05-23T18:08:28.417Z,45.10
2018-05-23T18:10:56.031Z,45.10
2018-05-23T18:13:25.246Z,45.90
2018-05-23T18:15:54.599Z,45.50
2018-05-23T18:18:22.290Z,45.80
2018-05-23T18:20:49.969Z,46.40
2018-05-23T18:23:20.100Z,47.10
2018-05-23T18:25:47.825Z,47.00
2018-05-23T18:28:15.692Z,47.40
2018-05-23T18:30:44.998Z,48.20
2018-05-23T18:33:15.582Z,48.10
2018-05-23T18:35:43.363Z,48.80
2018-05-23T18:38:14.216Z,49.40
2018-05-23T18:40:43.451Z,50.10
2018-05-23T18:43:12.558Z,50.90
2018-05-23T18:45:40.196Z,50.90
2018-05-23T18:48:08.081Z,50.90
2018-05-23T18:50:40.019Z,51.60
2018-05-23T18:53:07.655Z,51.60
2018-05-23T18:55:35.773Z,52.10
2018-05-23T18:58:04.054Z,52.10
2018-05-23T19:00:32.557Z,52.10
2018-05-23T19:03:00.274Z,52.20
2018-05-23T19:05:34.975Z,52.20
2018-05-23T19:08:02.817Z,52.90
2018-05-23T19:10:30.473Z,53.30
2018-05-23T19:12:58.159Z,53.40
2018-05-23T19:15:27.356Z,54.50
2018-05-23T19:17:55.052Z,54.50
2018-05-23T19:20:22.662Z,54.90
2018-05-23T19:22:51.439Z,54.90
2018-05-23T19:25:21.486Z,55.50
2018-05-23T19:27:49.603Z,55.80
2018-05-23T19:30:17.567Z,56.30
2018-05-23T19:32:45.971Z,56.50
2018-05-23T19:35:14.095Z,56.80
2018-05-23T19:37:41.943Z,57.10
2018-05-23T19:40:10.080Z,57.80
2018-05-23T19:42:38.161Z,58.00
2018-05-23T19:45:06.059Z,59.20
2018-05-23T19:47:34.242Z,59.60
2018-05-23T19:50:02.170Z,59.80
2018-05-23T19:52:30.011Z,59.50
2018-05-23T19:54:58.501Z,60.90
2018-05-23T19:57:26.458Z,60.80
2018-05-23T19:59:54.367Z,61.60
2018-05-23T20:02:22.450Z,61.50
2018-05-23T20:04:50.128Z,61.90
2018-05-23T20:07:18.035Z,62.30
2018-05-23T20:09:46.004Z,62.30
2018-05-23T20:12:14.094Z,63.20
2018-05-23T20:14:42.091Z,63.20
2018-05-23T20:17:09.797Z,63.90
2018-05-23T20:19:37.606Z,64.50
2018-05-23T20:22:05.356Z,65.60
2018-05-23T20:24:34.183Z,65.40
2018-05-23T20:27:01.799Z,65.60
2018-05-23T20:29:29.522Z,65.50
2018-05-23T20:31:57.413Z,66.80
2018-05-23T20:34:25.141Z,67.40
2018-05-23T20:36:53.252Z,66.90
2018-05-23T20:39:21.320Z,67.50
2018-05-23T20:41:50.550Z,68.80
2018-05-23T20:44:19.320Z,70.50
2018-05-23T20:46:47.030Z,70.30
2018-05-23T20:49:15.291Z,71.00
2018-05-23T20:51:44.103Z,69.70
2018-05-23T20:54:14.444Z,69.70
2018-05-23T20:56:42.252Z,70.00
2018-05-23T20:59:09.996Z,71.50
2018-05-23T21:01:39.175Z,72.10
2018-05-23T21:04:06.870Z,72.40
2018-05-23T21:06:34.530Z,72.30
2018-05-23T21:09:04.353Z,72.70
2018-05-23T21:11:32.084Z,73.00
2018-05-23T21:14:00.594Z,73.60
2018-05-23T21:16:28.221Z,73.60
2018-05-23T21:18:59.089Z,74.40
2018-05-23T21:21:26.777Z,74.40
2018-05-23T21:23:54.467Z,74.50
2018-05-23T21:26:23.027Z,75.10
2018-05-23T21:28:52.805Z,75.50
2018-05-23T21:31:22.027Z,75.80
2018-05-23T21:33:52.926Z,76.70
2018-05-23T21:36:25.297Z,76.70
2018-05-23T21:38:52.976Z,76.70
2018-05-23T21:41:21.359Z,77.30
2018-05-23T21:43:49.025Z,77.00
2018-05-23T21:46:20.999Z,77.70
2018-05-23T21:48:48.877Z,77.50
2018-05-23T21:51:16.525Z,77.70
2018-05-23T21:53:47.253Z,78.50
2018-05-23T21:56:17.098Z,79.00
2018-05-23T21:58:44.720Z,79.40
2018-05-23T22:01:13.396Z,79.30
2018-05-23T22:03:42.262Z,79.40
2018-05-23T22:06:10.632Z,79.00
2018-05-23T22:08:40.158Z,78.20
2018-05-23T22:11:07.748Z,78.00
2018-05-23T22:13:35.360Z,77.70
2018-05-23T22:16:03.308Z,76.10
2018-05-23T22:18:30.962Z,72.40
2018-05-23T22:21:00.599Z,73.20
2018-05-23T22:23:29.849Z,72.60
2018-05-23T22:25:57.577Z,76.00
2018-05-23T22:28:25.153Z,74.60
2018-05-23T22:30:52.831Z,76.30
2018-05-23T22:33:20.423Z,76.50
2018-05-23T22:35:50.047Z,76.60
2018-05-23T22:38:20.158Z,76.90
2018-05-23T22:40:47.769Z,76.90
2018-05-23T22:43:15.413Z,75.80
2018-05-23T22:45:43.009Z,76.00
2018-05-23T22:48:10.856Z,77.80
2018-05-23T22:50:38.614Z,78.30
2018-05-23T22:53:07.171Z,78.40
2018-05-23T22:55:34.772Z,78.30
2018-05-23T22:58:02.407Z,78.40
2018-05-23T23:00:30.263Z,78.30
2018-05-23T23:02:57.954Z,78.90
2018-05-23T23:05:25.550Z,78.90
2018-05-23T23:07:53.134Z,79.00
2018-05-23T23:10:20.932Z,75.70
2018-05-23T23:12:48.523Z,75.00
2018-05-23T23:15:16.122Z,74.60
2018-05-23T23:17:44.847Z,74.00
2018-05-23T23:20:14.561Z,73.60
2018-05-23T23:22:46.919Z,73.30
2018-05-23T23:25:15.295Z,75.00
2018-05-23T23:27:42.969Z,74.40
2018-05-23T23:30:13.385Z,73.70
2018-05-23T23:32:41.723Z,73.50
2018-05-23T23:35:09.323Z,73.40
2018-05-23T23:37:37.874Z,73.10
2018-05-23T23:40:10.029Z,73.10
2018-05-23T23:42:39.929Z,73.20
2018-05-23T23:45:07.571Z,74.30
2018-05-23T23:47:35.282Z,75.40
2018-05-23T23:50:06.212Z,76.20
2018-05-23T23:52:36.243Z,75.90
2018-05-23T23:55:04.756Z,75.00
2018-05-23T23:57:32.381Z,75.00
